METAR UND TAF INFORMATION
ZYHB 161000Z 20002MPS CAVOK 16/14 Q1013 NOSIG

 FLUGHAFENKARTE

 RUNWAY INFORMATION
Runway 05 Runway length 10500 ft Runway width 148 ft
Runway elevation 457 ft Runway displaced threshold 0 ft Runway heading 39
Runway 23 Runway length 10500 ft Runway width 148 ft
Runway elevation 439 ft Runway displaced threshold 0 ft Runway heading 219

 AIRPORT FREQUENCIES
Type ATIS Name ATIS Frequency 127.4 MHZ
Type TWR Name HARBIN TWR Frequency 118.7 MHZ

 AIRPORT NEAR NAVIGATION AIDS
Type VOR-DME Name Fuyu Frequency 113700 KHZ
Type VOR-DME Name Harbin Frequency 112500 KHZ